sensor_id;sensor_type;location;lat;lon;timestamp;pressure;altitude;pressure_sealevel;temperature
73662;BMP280;61956;52.540;13.382;2022-07-21T00:00:23;91103.78;;;27.55
73662;BMP280;61956;52.540;13.382;2022-07-21T00:02:57;90082.50;;;27.38
73662;BMP280;61956;52.540;13.382;2022-07-21T00:05:27;90697.25;;;27.39
73662;BMP280;61956;52.540;13.382;2022-07-21T00:07:57;91155.19;;;27.48
73662;BMP280;61956;52.540;13.382;2022-07-21T00:10:26;90668.03;;;27.39
73662;BMP280;61956;52.540;13.382;2022-07-21T00:12:56;90781.44;;;27.37
73662;BMP280;61956;52.540;13.382;2022-07-21T00:15:27;89834.47;;;27.26
73662;BMP280;61956;52.540;13.382;2022-07-21T00:17:59;90538.03;;;27.28
73662;BMP280;61956;52.540;13.382;2022-07-21T00:20:29;90231.88;;;27.23
73662;BMP280;61956;52.540;13.382;2022-07-21T00:22:59;90191.13;;;27.16
73662;BMP280;61956;52.540;13.382;2022-07-21T00:25:28;90026.50;;;27.14
73662;BMP280;61956;52.540;13.382;2022-07-21T00:27:57;90271.25;;;27.13
73662;BMP280;61956;52.540;13.382;2022-07-21T00:30:26;90854.84;;;27.18
73662;BMP280;61956;52.540;13.382;2022-07-21T00:32:55;90842.94;;;27.19
73662;BMP280;61956;52.540;13.382;2022-07-21T00:35:27;91142.47;;;27.23
73662;BMP280;61956;52.540;13.382;2022-07-21T00:37:56;90977.16;;;27.23
73662;BMP280;61956;52.540;13.382;2022-07-21T00:40:27;90357.56;;;27.14
73662;BMP280;61956;52.540;13.382;2022-07-21T00:42:56;90880.63;;;27.16
73662;BMP280;61956;52.540;13.382;2022-07-21T00:45:26;91371.56;;;27.24
73662;BMP280;61956;52.540;13.382;2022-07-21T00:47:55;90765.16;;;27.17
73662;BMP280;61956;52.540;13.382;2022-07-21T00:50:28;89858.13;;;27.00
73662;BMP280;61956;52.540;13.382;2022-07-21T00:52:58;90013.97;;;26.99
73662;BMP280;61956;52.540;13.382;2022-07-21T00:55:27;89652.09;;;26.88
73662;BMP280;61956;52.540;13.382;2022-07-21T00:57:57;90693.16;;;26.97
73662;BMP280;61956;52.540;13.382;2022-07-21T01:00:28;91217.84;;;27.06
73662;BMP280;61956;52.540;13.382;2022-07-21T01:02:58;90245.19;;;26.94
73662;BMP280;61956;52.540;13.382;2022-07-21T01:05:30;90612.75;;;26.95
73662;BMP280;61956;52.540;13.382;2022-07-21T01:08:00;90585.63;;;26.96
73662;BMP280;61956;52.540;13.382;2022-07-21T01:10:31;90099.72;;;26.88
73662;BMP280;61956;52.540;13.382;2022-07-21T01:13:01;90074.91;;;26.81
73662;BMP280;61956;52.540;13.382;2022-07-21T01:15:30;89358.59;;;26.73
73662;BMP280;61956;52.540;13.382;2022-07-21T01:18:00;90022.97;;;26.76
73662;BMP280;61956;52.540;13.382;2022-07-21T01:20:34;90305.50;;;26.77
73662;BMP280;61956;52.540;13.382;2022-07-21T01:23:06;90807.31;;;26.85
73662;BMP280;61956;52.540;13.382;2022-07-21T01:25:35;90625.41;;;26.82
73662;BMP280;61956;52.540;13.382;2022-07-21T01:28:05;90375.28;;;26.80
73662;BMP280;61956;52.540;13.382;2022-07-21T01:30:34;90529.69;;;26.78
73662;BMP280;61956;52.540;13.382;2022-07-21T01:33:03;90635.25;;;26.80
73662;BMP280;61956;52.540;13.382;2022-07-21T01:35:32;90916.59;;;26.82
73662;BMP280;61956;52.540;13.382;2022-07-21T01:38:01;90708.84;;;26.79
73662;BMP280;61956;52.540;13.382;2022-07-21T01:40:58;89894.59;;;26.66
73662;BMP280;61956;52.540;13.382;2022-07-21T01:43:40;90123.34;;;26.66
73662;BMP280;61956;52.540;13.382;2022-07-21T01:46:10;90509.44;;;26.71
73662;BMP280;61956;52.540;13.382;2022-07-21T01:48:41;89747.16;;;26.58
73662;BMP280;61956;52.540;13.382;2022-07-21T01:51:11;89200.72;;;26.46
73662;BMP280;61956;52.540;13.382;2022-07-21T01:53:41;89555.88;;;26.46
73662;BMP280;61956;52.540;13.382;2022-07-21T01:56:13;89669.16;;;26.46
73662;BMP280;61956;52.540;13.382;2022-07-21T01:58:42;89612.66;;;26.41
73662;BMP280;61956;52.540;13.382;2022-07-21T02:01:11;89293.16;;;26.36
73662;BMP280;61956;52.540;13.382;2022-07-21T02:03:40;89049.16;;;26.28
73662;BMP280;61956;52.540;13.382;2022-07-21T02:06:10;88480.06;;;26.16
73662;BMP280;61956;52.540;13.382;2022-07-21T02:08:40;88262.13;;;26.08
73662;BMP280;61956;52.540;13.382;2022-07-21T02:11:10;88949.34;;;26.11
73662;BMP280;61956;52.540;13.382;2022-07-21T02:13:42;88455.34;;;26.03
73662;BMP280;61956;52.540;13.382;2022-07-21T02:16:12;89220.13;;;26.09
73662;BMP280;61956;52.540;13.382;2022-07-21T02:18:44;88806.16;;;26.02
73662;BMP280;61956;52.540;13.382;2022-07-21T02:21:13;88955.09;;;26.01
73662;BMP280;61956;52.540;13.382;2022-07-21T02:23:42;89258.31;;;26.02
73662;BMP280;61956;52.540;13.382;2022-07-21T02:26:14;88441.16;;;25.89
73662;BMP280;61956;52.540;13.382;2022-07-21T02:28:43;88355.03;;;25.84
73662;BMP280;61956;52.540;13.382;2022-07-21T02:31:12;88391.41;;;25.83
73662;BMP280;61956;52.540;13.382;2022-07-21T02:33:42;88145.81;;;25.75
73662;BMP280;61956;52.540;13.382;2022-07-21T02:36:11;88828.09;;;25.81
73662;BMP280;61956;52.540;13.382;2022-07-21T02:38:40;89303.47;;;25.86
73662;BMP280;61956;52.540;13.382;2022-07-21T02:41:09;88979.75;;;25.84
73662;BMP280;61956;52.540;13.382;2022-07-21T02:43:41;89274.97;;;25.85
73662;BMP280;61956;52.540;13.382;2022-07-21T02:46:10;89061.06;;;25.81
73662;BMP280;61956;52.540;13.382;2022-07-21T02:48:39;89235.13;;;25.81
73662;BMP280;61956;52.540;13.382;2022-07-21T02:51:08;89845.84;;;25.90
73662;BMP280;61956;52.540;13.382;2022-07-21T02:53:37;89808.75;;;25.90
73662;BMP280;61956;52.540;13.382;2022-07-21T02:56:06;89753.72;;;25.88
73662;BMP280;61956;52.540;13.382;2022-07-21T02:58:36;89674.19;;;25.86
73662;BMP280;61956;52.540;13.382;2022-07-21T03:01:07;88919.94;;;25.74
73662;BMP280;61956;52.540;13.382;2022-07-21T03:03:36;89561.47;;;25.81
73662;BMP280;61956;52.540;13.382;2022-07-21T03:06:06;89450.25;;;25.81
73662;BMP280;61956;52.540;13.382;2022-07-21T03:08:35;89792.59;;;25.84
73662;BMP280;61956;52.540;13.382;2022-07-21T03:11:04;89709.84;;;25.83
73662;BMP280;61956;52.540;13.382;2022-07-21T03:13:34;89699.84;;;25.82
73662;BMP280;61956;52.540;13.382;2022-07-21T03:16:03;89294.53;;;25.75
73662;BMP280;61956;52.540;13.382;2022-07-21T03:18:35;89319.59;;;25.72
73662;BMP280;61956;52.540;13.382;2022-07-21T03:21:04;89896.41;;;25.80
73662;BMP280;61956;52.540;13.382;2022-07-21T03:23:33;89965.25;;;25.80
73662;BMP280;61956;52.540;13.382;2022-07-21T03:26:03;89343.41;;;25.72
73662;BMP280;61956;52.540;13.382;2022-07-21T03:28:32;89574.31;;;25.71
73662;BMP280;61956;52.540;13.382;2022-07-21T03:31:02;89798.19;;;25.74
73662;BMP280;61956;52.540;13.382;2022-07-21T03:33:31;89609.38;;;25.69
73662;BMP280;61956;52.540;13.382;2022-07-21T03:36:03;89596.13;;;25.69
73662;BMP280;61956;52.540;13.382;2022-07-21T03:38:32;89970.19;;;25.72
73662;BMP280;61956;52.540;13.382;2022-07-21T03:41:01;89799.34;;;25.71
73662;BMP280;61956;52.540;13.382;2022-07-21T03:43:30;88904.22;;;25.57
73662;BMP280;61956;52.540;13.382;2022-07-21T03:45:59;89934.81;;;25.65
73662;BMP280;61956;52.540;13.382;2022-07-21T03:48:29;90515.81;;;25.74
73662;BMP280;61956;52.540;13.382;2022-07-21T03:50:58;90243.63;;;25.72
73662;BMP280;61956;52.540;13.382;2022-07-21T03:53:29;90952.03;;;25.83
73662;BMP280;61956;52.540;13.382;2022-07-21T03:55:58;90199.38;;;25.75
73662;BMP280;61956;52.540;13.382;2022-07-21T03:58:27;90210.56;;;25.73
73662;BMP280;61956;52.540;13.382;2022-07-21T04:00:56;90396.72;;;25.76
73662;BMP280;61956;52.540;13.382;2022-07-21T04:03:26;90154.28;;;25.73
73662;BMP280;61956;52.540;13.382;2022-07-21T04:05:56;90446.94;;;25.74
73662;BMP280;61956;52.540;13.382;2022-07-21T04:08:25;90562.88;;;25.75
73662;BMP280;61956;52.540;13.382;2022-07-21T04:10:57;90001.19;;;25.69
73662;BMP280;61956;52.540;13.382;2022-07-21T04:13:26;90312.38;;;25.70
73662;BMP280;61956;52.540;13.382;2022-07-21T04:15:55;90137.50;;;25.68
73662;BMP280;61956;52.540;13.382;2022-07-21T04:18:24;89860.69;;;25.65
73662;BMP280;61956;52.540;13.382;2022-07-21T04:20:53;89638.06;;;25.59
73662;BMP280;61956;52.540;13.382;2022-07-21T04:23:22;89445.97;;;25.54
73662;BMP280;61956;52.540;13.382;2022-07-21T04:25:52;89412.22;;;25.53
73662;BMP280;61956;52.540;13.382;2022-07-21T04:28:23;89442.50;;;25.50
73662;BMP280;61956;52.540;13.382;2022-07-21T04:30:53;89621.19;;;25.51
73662;BMP280;61956;52.540;13.382;2022-07-21T04:33:22;89842.22;;;25.52
73662;BMP280;61956;52.540;13.382;2022-07-21T04:35:51;89774.13;;;25.52
73662;BMP280;61956;52.540;13.382;2022-07-21T04:38:20;89018.19;;;25.41
73662;BMP280;61956;52.540;13.382;2022-07-21T04:40:49;89574.00;;;25.45
73662;BMP280;61956;52.540;13.382;2022-07-21T04:43:18;89090.88;;;25.38
73662;BMP280;61956;52.540;13.382;2022-07-21T04:45:49;89272.03;;;25.37
73662;BMP280;61956;52.540;13.382;2022-07-21T04:48:19;89374.56;;;25.36
73662;BMP280;61956;52.540;13.382;2022-07-21T04:50:48;89389.09;;;25.35
73662;BMP280;61956;52.540;13.382;2022-07-21T04:53:18;89790.66;;;25.37
73662;BMP280;61956;52.540;13.382;2022-07-21T04:55:47;89894.03;;;25.41
73662;BMP280;61956;52.540;13.382;2022-07-21T04:58:16;89232.84;;;25.31
73662;BMP280;61956;52.540;13.382;2022-07-21T05:00:46;88960.88;;;25.26
73662;BMP280;61956;52.540;13.382;2022-07-21T05:03:17;88183.78;;;25.12
73662;BMP280;61956;52.540;13.382;2022-07-21T05:05:46;87728.34;;;25.01
73662;BMP280;61956;52.540;13.382;2022-07-21T05:08:15;87409.81;;;24.90
73662;BMP280;61956;52.540;13.382;2022-07-21T05:10:44;87314.00;;;24.83
73662;BMP280;61956;52.540;13.382;2022-07-21T05:13:14;87263.16;;;24.79
73662;BMP280;61956;52.540;13.382;2022-07-21T05:15:43;86814.19;;;24.67
73662;BMP280;61956;52.540;13.382;2022-07-21T05:18:14;87351.56;;;24.68
73662;BMP280;61956;52.540;13.382;2022-07-21T05:20:43;88126.94;;;24.75
73662;BMP280;61956;52.540;13.382;2022-07-21T05:23:12;88199.63;;;24.76
73662;BMP280;61956;52.540;13.382;2022-07-21T05:25:41;88280.19;;;24.75
73662;BMP280;61956;52.540;13.382;2022-07-21T05:28:10;88709.03;;;24.79
73662;BMP280;61956;52.540;13.382;2022-07-21T05:30:40;88996.56;;;24.83
73662;BMP280;61956;52.540;13.382;2022-07-21T05:33:09;89189.69;;;24.87
73662;BMP280;61956;52.540;13.382;2022-07-21T05:35:41;89254.47;;;24.88
73662;BMP280;61956;52.540;13.382;2022-07-21T05:38:10;89116.88;;;24.84
73662;BMP280;61956;52.540;13.382;2022-07-21T05:40:42;89306.00;;;24.87
73662;BMP280;61956;52.540;13.382;2022-07-21T05:43:11;88693.88;;;24.80
73662;BMP280;61956;52.540;13.382;2022-07-21T05:45:40;88178.41;;;24.72
73662;BMP280;61956;52.540;13.382;2022-07-21T05:48:09;88079.25;;;24.67
73662;BMP280;61956;52.540;13.382;2022-07-21T05:50:40;88192.81;;;24.65
73662;BMP280;61956;52.540;13.382;2022-07-21T05:53:09;88462.94;;;24.65
73662;BMP280;61956;52.540;13.382;2022-07-21T05:55:38;88763.53;;;24.67
73662;BMP280;61956;52.540;13.382;2022-07-21T05:58:07;88368.41;;;24.61
73662;BMP280;61956;52.540;13.382;2022-07-21T06:00:37;88642.53;;;24.63
73662;BMP280;61956;52.540;13.382;2022-07-21T06:03:07;89183.72;;;24.69
73662;BMP280;61956;52.540;13.382;2022-07-21T06:05:36;89567.81;;;24.73
73662;BMP280;61956;52.540;13.382;2022-07-21T06:08:07;89144.81;;;24.71
73662;BMP280;61956;52.540;13.382;2022-07-21T06:10:37;88483.28;;;24.60
73662;BMP280;61956;52.540;13.382;2022-07-21T06:13:06;88911.38;;;24.63
73662;BMP280;61956;52.540;13.382;2022-07-21T06:15:35;89056.75;;;24.65
73662;BMP280;61956;52.540;13.382;2022-07-21T06:18:04;89951.81;;;24.74
73662;BMP280;61956;52.540;13.382;2022-07-21T06:20:33;90145.66;;;24.78
73662;BMP280;61956;52.540;13.382;2022-07-21T06:23:02;90409.63;;;24.82
73662;BMP280;61956;52.540;13.382;2022-07-21T06:25:33;91093.31;;;24.93
73662;BMP280;61956;52.540;13.382;2022-07-21T06:28:03;92222.06;;;25.11
73662;BMP280;61956;52.540;13.382;2022-07-21T06:30:32;93477.72;;;25.36
73662;BMP280;61956;52.540;13.382;2022-07-21T06:33:02;92168.66;;;25.30
73662;BMP280;61956;52.540;13.382;2022-07-21T06:35:31;90894.38;;;25.15
73662;BMP280;61956;52.540;13.382;2022-07-21T06:38:00;91123.63;;;25.11
73662;BMP280;61956;52.540;13.382;2022-07-21T06:40:32;90774.91;;;25.09
73662;BMP280;61956;52.540;13.382;2022-07-21T06:43:02;92390.41;;;25.22
73662;BMP280;61956;52.540;13.382;2022-07-21T06:45:31;95232.56;;;25.69
73662;BMP280;61956;52.540;13.382;2022-07-21T06:48:01;94691.25;;;25.73
73662;BMP280;61956;52.540;13.382;2022-07-21T06:50:31;95575.59;;;25.96
73662;BMP280;61956;52.540;13.382;2022-07-21T06:53:01;94932.47;;;26.04
73662;BMP280;61956;52.540;13.382;2022-07-21T06:55:33;95277.13;;;26.17
73662;BMP280;61956;52.540;13.382;2022-07-21T06:58:10;96302.81;;;26.32
73662;BMP280;61956;52.540;13.382;2022-07-21T07:00:41;99826.25;;;26.99
73662;BMP280;61956;52.540;13.382;2022-07-21T07:03:12;103446.91;;;28.21
73662;BMP280;61956;52.540;13.382;2022-07-21T07:05:43;101071.47;;;28.42
73662;BMP280;61956;52.540;13.382;2022-07-21T07:08:14;100544.13;;;28.71
73662;BMP280;61956;52.540;13.382;2022-07-21T07:10:46;97353.69;;;28.35
73662;BMP280;61956;52.540;13.382;2022-07-21T07:13:15;96455.56;;;28.12
73662;BMP280;61956;52.540;13.382;2022-07-21T07:15:44;100966.38;;;28.89
73662;BMP280;61956;52.540;13.382;2022-07-21T07:18:13;101169.38;;;29.43
73662;BMP280;61956;52.540;13.382;2022-07-21T07:20:43;102911.50;;;29.99
73662;BMP280;61956;52.540;13.382;2022-07-21T07:23:12;99552.34;;;29.74
73662;BMP280;61956;52.540;13.382;2022-07-21T07:25:41;98887.53;;;29.71
73662;BMP280;61956;52.540;13.382;2022-07-21T07:28:12;98880.16;;;29.78
73662;BMP280;61956;52.540;13.382;2022-07-21T07:30:42;101581.81;;;30.19
73662;BMP280;61956;52.540;13.382;2022-07-21T07:33:11;100746.66;;;30.26
73662;BMP280;61956;52.540;13.382;2022-07-21T07:35:40;99526.25;;;30.26
73662;BMP280;61956;52.540;13.382;2022-07-21T07:38:12;98488.50;;;30.03
73662;BMP280;61956;52.540;13.382;2022-07-21T07:40:42;99506.47;;;30.20
73662;BMP280;61956;52.540;13.382;2022-07-21T07:43:14;97127.09;;;29.78
73662;BMP280;61956;52.540;13.382;2022-07-21T07:45:43;99443.91;;;30.10
73662;BMP280;61956;52.540;13.382;2022-07-21T07:48:12;100038.84;;;30.52
73662;BMP280;61956;52.540;13.382;2022-07-21T07:50:42;100558.75;;;30.83
73662;BMP280;61956;52.540;13.382;2022-07-21T07:53:11;100493.72;;;30.82
73662;BMP280;61956;52.540;13.382;2022-07-21T07:55:40;97903.81;;;30.43
73662;BMP280;61956;52.540;13.382;2022-07-21T07:58:09;97859.16;;;30.31
73662;BMP280;61956;52.540;13.382;2022-07-21T08:00:41;99520.56;;;30.58
73662;BMP280;61956;52.540;13.382;2022-07-21T08:03:10;93290.47;;;29.76
73662;BMP280;61956;52.540;13.382;2022-07-21T08:05:39;94463.19;;;29.22
73662;BMP280;61956;52.540;13.382;2022-07-21T08:08:09;101715.75;;;30.89
73662;BMP280;61956;52.540;13.382;2022-07-21T08:10:38;91873.38;;;29.29
73662;BMP280;61956;52.540;13.382;2022-07-21T08:13:09;89466.03;;;28.12
73662;BMP280;61956;52.540;13.382;2022-07-21T08:15:42;90085.06;;;27.70
73662;BMP280;61956;52.540;13.382;2022-07-21T08:18:13;91325.78;;;27.70
73662;BMP280;61956;52.540;13.382;2022-07-21T08:20:43;94230.66;;;27.97
73662;BMP280;61956;52.540;13.382;2022-07-21T08:23:14;93719.78;;;28.05
73662;BMP280;61956;52.540;13.382;2022-07-21T08:25:44;93386.97;;;27.95
73662;BMP280;61956;52.540;13.382;2022-07-21T08:28:13;94702.81;;;28.08
73662;BMP280;61956;52.540;13.382;2022-07-21T08:30:45;96223.84;;;28.47
73662;BMP280;61956;52.540;13.382;2022-07-21T08:33:14;96788.53;;;28.87
73662;BMP280;61956;52.540;13.382;2022-07-21T08:35:43;96714.19;;;28.80
73662;BMP280;61956;52.540;13.382;2022-07-21T08:38:12;94932.41;;;28.60
73662;BMP280;61956;52.540;13.382;2022-07-21T08:40:43;93336.09;;;28.22
73662;BMP280;61956;52.540;13.382;2022-07-21T08:43:14;95675.56;;;28.42
73662;BMP280;61956;52.540;13.382;2022-07-21T08:45:46;96430.69;;;28.74
73662;BMP280;61956;52.540;13.382;2022-07-21T08:48:17;96049.16;;;28.72
73662;BMP280;61956;52.540;13.382;2022-07-21T08:50:52;96347.84;;;28.77
73662;BMP280;61956;52.540;13.382;2022-07-21T08:53:22;98431.88;;;29.30
73662;BMP280;61956;52.540;13.382;2022-07-21T08:55:54;98803.38;;;29.59
73662;BMP280;61956;52.540;13.382;2022-07-21T08:58:23;99343.72;;;29.84
73662;BMP280;61956;52.540;13.382;2022-07-21T09:12:51;95417.81;;;29.09
73662;BMP280;61956;52.540;13.382;2022-07-21T09:15:24;94656.88;;;28.88
73662;BMP280;61956;52.540;13.382;2022-07-21T09:18:06;95054.38;;;28.79
73662;BMP280;61956;52.540;13.382;2022-07-21T09:20:37;94925.00;;;28.78
73662;BMP280;61956;52.540;13.382;2022-07-21T09:23:10;95774.41;;;28.86
73662;BMP280;61956;52.540;13.382;2022-07-21T09:25:42;97869.72;;;29.26
73662;BMP280;61956;52.540;13.382;2022-07-21T09:28:17;97565.28;;;29.47
73662;BMP280;61956;52.540;13.382;2022-07-21T09:30:49;97007.41;;;29.35
73662;BMP280;61956;52.540;13.382;2022-07-21T09:33:21;95375.88;;;29.10
73662;BMP280;61956;52.540;13.382;2022-07-21T09:36:00;95987.13;;;29.08
73662;BMP280;61956;52.540;13.382;2022-07-21T09:38:36;96128.81;;;29.10
73662;BMP280;61956;52.540;13.382;2022-07-21T09:41:10;96562.84;;;29.19
73662;BMP280;61956;52.540;13.382;2022-07-21T09:43:47;96796.28;;;29.23
73662;BMP280;61956;52.540;13.382;2022-07-21T09:46:18;98674.63;;;29.64
73662;BMP280;61956;52.540;13.382;2022-07-21T09:48:51;98017.06;;;29.71
73662;BMP280;61956;52.540;13.382;2022-07-21T09:51:24;99599.88;;;30.04
73662;BMP280;61956;52.540;13.382;2022-07-21T09:53:58;98920.47;;;30.07
73662;BMP280;61956;52.540;13.382;2022-07-21T09:56:30;98963.13;;;30.14
73662;BMP280;61956;52.540;13.382;2022-07-21T09:59:05;98397.72;;;30.12
73662;BMP280;61956;52.540;13.382;2022-07-21T10:01:37;98195.34;;;30.09
73662;BMP280;61956;52.540;13.382;2022-07-21T10:04:07;98055.72;;;30.05
73662;BMP280;61956;52.540;13.382;2022-07-21T10:06:38;96349.25;;;29.74
73662;BMP280;61956;52.540;13.382;2022-07-21T10:09:09;97934.69;;;29.92
73662;BMP280;61956;52.540;13.382;2022-07-21T10:11:40;97478.84;;;29.91
73662;BMP280;61956;52.540;13.382;2022-07-21T10:14:13;97734.69;;;29.90
73662;BMP280;61956;52.540;13.382;2022-07-21T10:16:42;97196.34;;;29.82
73662;BMP280;61956;52.540;13.382;2022-07-21T10:19:14;97824.94;;;29.86
73662;BMP280;61956;52.540;13.382;2022-07-21T10:22:01;97240.03;;;29.79
73662;BMP280;61956;52.540;13.382;2022-07-21T10:24:49;96899.16;;;29.72
73662;BMP280;61956;52.540;13.382;2022-07-21T10:27:20;97248.66;;;29.74
73662;BMP280;61956;52.540;13.382;2022-07-21T10:29:57;96501.34;;;29.63
73662;BMP280;61956;52.540;13.382;2022-07-21T10:32:32;96547.41;;;29.58
73662;BMP280;61956;52.540;13.382;2022-07-21T10:35:26;97120.44;;;29.65
73662;BMP280;61956;52.540;13.382;2022-07-21T10:37:57;97009.00;;;29.65
73662;BMP280;61956;52.540;13.382;2022-07-21T10:40:41;96483.03;;;29.56
73662;BMP280;61956;52.540;13.382;2022-07-21T10:43:38;95839.09;;;29.41
73662;BMP280;61956;52.540;13.382;2022-07-21T10:46:41;95838.63;;;29.31
73662;BMP280;61956;52.540;13.382;2022-07-21T10:49:40;95634.13;;;29.22
73662;BMP280;61956;52.540;13.382;2022-07-21T10:55:27;94789.63;;;28.95
73662;BMP280;61956;52.540;13.382;2022-07-21T10:58:16;95491.25;;;28.99
73662;BMP280;61956;52.540;13.382;2022-07-21T11:00:53;96173.22;;;29.13
73662;BMP280;61956;52.540;13.382;2022-07-21T11:03:28;96041.03;;;29.12
73662;BMP280;61956;52.540;13.382;2022-07-21T11:09:05;96121.06;;;29.12
73662;BMP280;61956;52.540;13.382;2022-07-21T11:11:57;95829.50;;;29.06
73662;BMP280;61956;52.540;13.382;2022-07-21T11:14:37;96702.34;;;29.19
73662;BMP280;61956;52.540;13.382;2022-07-21T11:17:24;96959.22;;;29.29
73662;BMP280;61956;52.540;13.382;2022-07-21T11:19:59;98191.47;;;29.59
73662;BMP280;61956;52.540;13.382;2022-07-21T11:22:29;97776.13;;;29.64
73662;BMP280;61956;52.540;13.382;2022-07-21T11:25:05;98321.28;;;29.73
73662;BMP280;61956;52.540;13.382;2022-07-21T11:27:40;99012.66;;;29.99
73662;BMP280;61956;52.540;13.382;2022-07-21T11:30:12;97821.06;;;29.87
73662;BMP280;61956;52.540;13.382;2022-07-21T11:32:46;96641.13;;;29.60
73662;BMP280;61956;52.540;13.382;2022-07-21T11:35:20;97735.94;;;29.76
73662;BMP280;61956;52.540;13.382;2022-07-21T11:37:50;97020.19;;;29.64
73662;BMP280;61956;52.540;13.382;2022-07-21T11:40:20;97189.19;;;29.64
73662;BMP280;61956;52.540;13.382;2022-07-21T11:42:51;96532.00;;;29.53
73662;BMP280;61956;52.540;13.382;2022-07-21T11:45:25;96066.69;;;29.41
73662;BMP280;61956;52.540;13.382;2022-07-21T11:47:54;95523.75;;;29.26
73662;BMP280;61956;52.540;13.382;2022-07-21T11:50:26;94698.16;;;29.00
73662;BMP280;61956;52.540;13.382;2022-07-21T11:52:56;95103.22;;;28.98
73662;BMP280;61956;52.540;13.382;2022-07-21T11:55:28;95365.94;;;28.99
73662;BMP280;61956;52.540;13.382;2022-07-21T11:58:01;95628.25;;;29.02
73662;BMP280;61956;52.540;13.382;2022-07-21T12:00:30;95479.91;;;28.99
73662;BMP280;61956;52.540;13.382;2022-07-21T12:03:04;95136.44;;;28.91
73662;BMP280;61956;52.540;13.382;2022-07-21T12:05:38;94334.91;;;28.73
73662;BMP280;61956;52.540;13.382;2022-07-21T12:08:08;94509.41;;;28.67
73662;BMP280;61956;52.540;13.382;2022-07-21T12:10:38;95209.22;;;28.75
73662;BMP280;61956;52.540;13.382;2022-07-21T12:13:10;96048.09;;;28.89
73662;BMP280;61956;52.540;13.382;2022-07-21T12:15:39;95034.47;;;28.80
73662;BMP280;61956;52.540;13.382;2022-07-21T12:18:18;93564.72;;;28.48
73662;BMP280;61956;52.540;13.382;2022-07-21T12:21:01;93568.22;;;28.35
73662;BMP280;61956;52.540;13.382;2022-07-21T12:23:32;92967.09;;;28.17
73662;BMP280;61956;52.540;13.382;2022-07-21T12:26:03;92771.22;;;28.04
73662;BMP280;61956;52.540;13.382;2022-07-21T12:28:42;92054.88;;;27.82
73662;BMP280;61956;52.540;13.382;2022-07-21T12:31:14;91992.75;;;27.68
73662;BMP280;61956;52.540;13.382;2022-07-21T12:33:46;91818.47;;;27.55
73662;BMP280;61956;52.540;13.382;2022-07-21T12:36:19;91831.34;;;27.49
73662;BMP280;61956;52.540;13.382;2022-07-21T12:38:49;91889.28;;;27.41
73662;BMP280;61956;52.540;13.382;2022-07-21T12:41:21;92411.59;;;27.44
73662;BMP280;61956;52.540;13.382;2022-07-21T12:43:57;92948.22;;;27.50
73662;BMP280;61956;52.540;13.382;2022-07-21T12:46:29;93315.41;;;27.54
73662;BMP280;61956;52.540;13.382;2022-07-21T12:49:06;93192.44;;;27.53
73662;BMP280;61956;52.540;13.382;2022-07-21T12:51:42;93142.63;;;27.54
73662;BMP280;61956;52.540;13.382;2022-07-21T12:54:23;93248.25;;;27.53
73662;BMP280;61956;52.540;13.382;2022-07-21T12:56:52;93015.19;;;27.48
73662;BMP280;61956;52.540;13.382;2022-07-21T12:59:21;92850.59;;;27.42
73662;BMP280;61956;52.540;13.382;2022-07-21T13:01:51;92478.63;;;27.35
73662;BMP280;61956;52.540;13.382;2022-07-21T13:04:20;92284.63;;;27.25
73662;BMP280;61956;52.540;13.382;2022-07-21T13:06:51;91566.47;;;27.09
73662;BMP280;61956;52.540;13.382;2022-07-21T13:09:20;91811.84;;;27.06
73662;BMP280;61956;52.540;13.382;2022-07-21T13:11:50;91201.78;;;26.93
73662;BMP280;61956;52.540;13.382;2022-07-21T13:14:19;90265.34;;;26.69
73662;BMP280;61956;52.540;13.382;2022-07-21T13:16:48;89784.69;;;26.51
73662;BMP280;61956;52.540;13.382;2022-07-21T13:19:18;89258.53;;;26.30
73662;BMP280;61956;52.540;13.382;2022-07-21T13:21:47;89554.31;;;26.21
73662;BMP280;61956;52.540;13.382;2022-07-21T13:24:19;89279.09;;;26.10
73662;BMP280;61956;52.540;13.382;2022-07-21T13:26:48;88480.16;;;25.88
73662;BMP280;61956;52.540;13.382;2022-07-21T13:29:17;88230.41;;;25.71
73662;BMP280;61956;52.540;13.382;2022-07-21T13:31:46;88038.41;;;25.58
73662;BMP280;61956;52.540;13.382;2022-07-21T13:34:15;86954.72;;;25.32
73662;BMP280;61956;52.540;13.382;2022-07-21T13:36:44;86336.53;;;25.06
73662;BMP280;61956;52.540;13.382;2022-07-21T13:39:13;86469.41;;;24.94
73662;BMP280;61956;52.540;13.382;2022-07-21T13:41:45;86762.59;;;24.86
73662;BMP280;61956;52.540;13.382;2022-07-21T13:44:14;86732.94;;;24.75
73662;BMP280;61956;52.540;13.382;2022-07-21T13:46:43;87471.84;;;24.79
73662;BMP280;61956;52.540;13.382;2022-07-21T13:49:12;87831.78;;;24.79
73662;BMP280;61956;52.540;13.382;2022-07-21T13:51:41;89120.53;;;24.95
73662;BMP280;61956;52.540;13.382;2022-07-21T13:54:10;90072.47;;;25.08
73662;BMP280;61956;52.540;13.382;2022-07-21T13:56:39;91274.44;;;25.30
73662;BMP280;61956;52.540;13.382;2022-07-21T13:59:11;92457.44;;;25.55
73662;BMP280;61956;52.540;13.382;2022-07-21T14:01:41;93425.81;;;25.80
73662;BMP280;61956;52.540;13.382;2022-07-21T14:04:10;93469.44;;;25.92
73662;BMP280;61956;52.540;13.382;2022-07-21T14:06:39;94034.38;;;26.11
73662;BMP280;61956;52.540;13.382;2022-07-21T14:09:12;93536.34;;;26.12
73662;BMP280;61956;52.540;13.382;2022-07-21T14:11:41;94669.03;;;26.26
73662;BMP280;61956;52.540;13.382;2022-07-21T14:14:14;96624.16;;;26.73
73662;BMP280;61956;52.540;13.382;2022-07-21T14:16:47;97395.44;;;27.13
73662;BMP280;61956;52.540;13.382;2022-07-21T14:19:19;95352.84;;;27.07
73662;BMP280;61956;52.540;13.382;2022-07-21T14:21:48;92732.22;;;26.61
73662;BMP280;61956;52.540;13.382;2022-07-21T14:24:18;92067.13;;;26.39
73662;BMP280;61956;52.540;13.382;2022-07-21T14:26:59;93506.47;;;26.45
73662;BMP280;61956;52.540;13.382;2022-07-21T14:29:31;93165.34;;;26.44
73662;BMP280;61956;52.540;13.382;2022-07-21T14:32:00;93459.22;;;26.44
73662;BMP280;61956;52.540;13.382;2022-07-21T14:34:29;95930.81;;;26.80
73662;BMP280;61956;52.540;13.382;2022-07-21T14:36:58;98082.97;;;27.39